createdAt,value
2022-08-17T00:00:43.429Z,99962.40
2022-08-17T00:05:54.549Z,99964.00
2022-08-17T00:10:59.835Z,99960.80
2022-08-17T00:16:10.322Z,99954.60
2022-08-17T00:21:23.850Z,99955.80
2022-08-17T00:26:43.578Z,99952.80
2022-08-17T00:31:52.737Z,99950.80
2022-08-17T00:36:57.372Z,99948.20
2022-08-17T00:42:01.617Z,99945.80
2022-08-17T00:47:05.960Z,99954.00
2022-08-17T00:52:19.606Z,99955.00
2022-08-17T00:57:59.261Z,99960.60
2022-08-17T01:03:11.487Z,99965.80
2022-08-17T01:08:22.841Z,99963.20
2022-08-17T01:13:28.312Z,99963.40
2022-08-17T01:18:34.754Z,99969.80
2022-08-17T01:23:39.088Z,99978.80
2022-08-17T01:28:54.373Z,99975.60
2022-08-17T01:34:05.204Z,99972.20
2022-08-17T01:39:30.808Z,99974.40
2022-08-17T01:44:38.919Z,99974.80
2022-08-17T01:49:42.955Z,99978.60
2022-08-17T01:55:02.423Z,99973.20
2022-08-17T02:00:12.552Z,99979.00
2022-08-17T02:05:17.699Z,99975.00
2022-08-17T02:10:24.968Z,99972.00
2022-08-17T02:15:38.721Z,99966.00
2022-08-17T02:20:43.619Z,99969.20
2022-08-17T02:25:49.276Z,99972.00
2022-08-17T02:31:00.745Z,99965.60
2022-08-17T02:36:11.454Z,99965.60
2022-08-17T02:41:15.672Z,99959.60
2022-08-17T02:46:20.812Z,99955.60
2022-08-17T02:51:28.441Z,99961.40
2022-08-17T02:56:32.688Z,99962.40
2022-08-17T03:01:37.050Z,99958.40
2022-08-17T03:06:41.070Z,99958.00
2022-08-17T03:11:45.311Z,99954.40
2022-08-17T03:16:50.477Z,99956.00
2022-08-17T03:21:55.398Z,99957.60
2022-08-17T03:26:59.763Z,99963.40
2022-08-17T03:32:17.433Z,99964.60
2022-08-17T03:37:21.552Z,99965.80
2022-08-17T03:42:32.597Z,99965.20
2022-08-17T03:47:56.130Z,99968.00
2022-08-17T03:53:22.150Z,99964.40
2022-08-17T03:58:26.287Z,99966.20
2022-08-17T04:03:30.329Z,99966.20
2022-08-17T04:08:36.232Z,99970.00
2022-08-17T04:13:40.540Z,99973.40
2022-08-17T04:18:44.364Z,99978.40
2022-08-17T04:23:49.013Z,99981.60
2022-08-17T04:28:53.259Z,99976.20
2022-08-17T04:33:57.392Z,99978.80
2022-08-17T04:39:02.325Z,99979.80
2022-08-17T04:44:06.491Z,99976.60
2022-08-17T04:49:12.653Z,99983.60
2022-08-17T04:54:23.141Z,99983.00
2022-08-17T04:59:27.274Z,99975.80
2022-08-17T05:04:35.025Z,99981.80
2022-08-17T05:09:39.445Z,99978.40
2022-08-17T05:14:43.576Z,99982.60
2022-08-17T05:19:51.836Z,99982.40
2022-08-17T05:24:56.247Z,99996.20
2022-08-17T05:30:02.038Z,99995.80
2022-08-17T05:35:07.398Z,99995.40
2022-08-17T05:40:12.350Z,100001.60
2022-08-17T05:45:32.100Z,99996.00
2022-08-17T05:51:31.656Z,99999.60
2022-08-17T05:56:44.468Z,100002.00
2022-08-17T06:02:04.269Z,99998.60
2022-08-17T06:07:39.515Z,99997.20
2022-08-17T06:13:08.416Z,100001.00
2022-08-17T06:18:18.537Z,100008.80
2022-08-17T06:23:44.295Z,100009.60
2022-08-17T06:28:56.325Z,100015.20
2022-08-17T06:34:04.379Z,100012.80
2022-08-17T06:40:11.378Z,100017.00
2022-08-17T06:45:29.370Z,100017.80
2022-08-17T06:51:00.726Z,100025.20
2022-08-17T06:56:22.771Z,100024.20
2022-08-17T07:01:35.752Z,100022.00
2022-08-17T07:06:57.652Z,100027.60
2022-08-17T07:12:15.709Z,100026.60
2022-08-17T07:17:46.700Z,100022.40
2022-08-17T07:23:05.114Z,100028.20
2022-08-17T07:28:09.499Z,100028.00
2022-08-17T07:33:23.310Z,100027.60
2022-08-17T07:38:34.702Z,100030.20
2022-08-17T07:43:41.111Z,100031.00
2022-08-17T07:48:55.563Z,100030.80
2022-08-17T07:54:24.070Z,100037.60
2022-08-17T08:00:12.666Z,100029.40
2022-08-17T08:05:30.828Z,100035.20
2022-08-17T08:11:34.367Z,100035.60
2022-08-17T08:16:38.394Z,100033.00
2022-08-17T08:22:03.725Z,100028.00
2022-08-17T08:27:19.726Z,100027.20
2022-08-17T08:32:57.568Z,100029.00
2022-08-17T08:38:24.400Z,100031.00
2022-08-17T08:43:55.534Z,100034.00
2022-08-17T08:49:45.034Z,100036.60
2022-08-17T08:55:04.376Z,100032.00
2022-08-17T09:00:18.189Z,100028.20
2022-08-17T09:06:37.329Z,100022.80
2022-08-17T09:12:02.465Z,100017.60
2022-08-17T09:18:03.528Z,100026.40
2022-08-17T09:23:34.594Z,100030.20
2022-08-17T09:28:43.999Z,100026.60
2022-08-17T09:33:51.760Z,100023.20
2022-08-17T09:39:12.753Z,100028.20
2022-08-17T09:44:53.307Z,100029.00
2022-08-17T09:51:04.286Z,100030.60
2022-08-17T09:56:07.446Z,100031.00
2022-08-17T10:02:00.277Z,100033.40
2022-08-17T10:07:34.450Z,100032.00
2022-08-17T10:12:49.586Z,100038.80
2022-08-17T10:18:38.204Z,100042.40
2022-08-17T10:24:04.785Z,100041.20
2022-08-17T10:29:14.118Z,100035.40
2022-08-17T10:35:02.661Z,100042.80
2022-08-17T10:40:28.487Z,100042.20
2022-08-17T10:46:31.211Z,100048.40
2022-08-17T10:51:41.115Z,100042.80
2022-08-17T10:56:51.843Z,100041.00
2022-08-17T11:02:19.830Z,100041.00
2022-08-17T11:08:02.338Z,100043.40
2022-08-17T11:13:41.509Z,100042.80
2022-08-17T11:19:10.779Z,100040.20
2022-08-17T11:24:19.930Z,100038.60
2022-08-17T11:29:49.443Z,100039.80
2022-08-17T11:35:21.341Z,100031.20
2022-08-17T11:41:20.504Z,100046.20
2022-08-17T11:47:19.595Z,100034.00
2022-08-17T11:52:48.602Z,100033.60
2022-08-17T11:58:16.794Z,100047.00
2022-08-17T12:03:32.869Z,100042.60
2022-08-17T12:08:43.865Z,100039.60
2022-08-17T12:13:55.846Z,100035.60
2022-08-17T12:19:03.820Z,100028.80
2022-08-17T12:25:01.831Z,100034.00
2022-08-17T12:30:16.657Z,100033.40
2022-08-17T12:35:39.560Z,100039.00
2022-08-17T12:40:58.141Z,100054.20
2022-08-17T12:46:15.270Z,100060.60
2022-08-17T12:51:19.777Z,100063.60
2022-08-17T12:56:23.916Z,100054.80
2022-08-17T13:01:28.187Z,100073.20
2022-08-17T13:06:37.085Z,100073.80
2022-08-17T13:11:55.607Z,100080.00
2022-08-17T13:17:07.365Z,100074.20
2022-08-17T13:22:15.394Z,100066.80
2022-08-17T13:27:23.614Z,100061.20
2022-08-17T13:32:45.106Z,100054.20
2022-08-17T13:38:38.322Z,100054.60
2022-08-17T13:43:48.887Z,100053.00
2022-08-17T13:49:10.334Z,100049.40
2022-08-17T13:54:34.801Z,100044.00
2022-08-17T13:59:52.993Z,100043.20
2022-08-17T14:05:01.327Z,100053.40
2022-08-17T14:10:15.587Z,100049.60
2022-08-17T14:15:25.013Z,100045.20
2022-08-17T14:20:50.591Z,100049.00
2022-08-17T14:25:55.042Z,100039.20
2022-08-17T14:30:59.353Z,100044.20
2022-08-17T14:36:05.190Z,100046.20
2022-08-17T14:41:09.781Z,100045.40
2022-08-17T14:46:14.391Z,100053.20
2022-08-17T14:51:23.826Z,100042.00
2022-08-17T14:56:28.221Z,100055.00
2022-08-17T15:01:39.605Z,100063.40
2022-08-17T15:06:48.968Z,100050.00
2022-08-17T15:11:54.461Z,100049.60
2022-08-17T15:17:00.225Z,100055.40
2022-08-17T15:22:04.655Z,100056.60
2022-08-17T15:27:08.786Z,100050.40
2022-08-17T15:32:33.096Z,100045.40
2022-08-17T15:37:39.654Z,100047.20
2022-08-17T15:42:43.717Z,100046.80
2022-08-17T15:47:47.996Z,100048.60
2022-08-17T15:53:01.647Z,100039.20
2022-08-17T15:58:06.173Z,100037.00
2022-08-17T16:03:45.351Z,100056.80
2022-08-17T16:08:36.232Z,100039.80
2022-08-17T16:13:42.248Z,100042.60
2022-08-17T16:18:59.470Z,100045.80
2022-08-17T16:24:13.226Z,100053.60
2022-08-17T16:29:19.070Z,100076.00
2022-08-17T16:34:24.025Z,100076.20
2022-08-17T16:39:30.062Z,100078.20
2022-08-17T16:44:34.339Z,100074.60
2022-08-17T16:49:39.712Z,100076.00
2022-08-17T16:54:45.960Z,100083.00
2022-08-17T16:59:54.398Z,100076.60
2022-08-17T17:05:59.452Z,100080.00
2022-08-17T17:11:46.570Z,100084.20
2022-08-17T17:17:19.793Z,100092.80
2022-08-17T17:23:03.807Z,100088.80
2022-08-17T17:28:36.809Z,100096.80
2022-08-17T17:34:00.913Z,100091.00
2022-08-17T17:39:37.091Z,100097.80
2022-08-17T17:45:23.778Z,100103.40
2022-08-17T17:50:41.314Z,100109.00
2022-08-17T17:56:19.656Z,100119.00
2022-08-17T18:02:53.632Z,100115.20
2022-08-17T18:08:39.402Z,100126.00
2022-08-17T18:14:26.518Z,100125.20
2022-08-17T18:19:33.135Z,100131.20
2022-08-17T18:24:41.633Z,100135.60
2022-08-17T18:29:48.483Z,100138.80
2022-08-17T18:35:28.380Z,100146.00
2022-08-17T18:40:38.397Z,100148.40
2022-08-17T18:45:58.568Z,100149.60
2022-08-17T18:51:40.921Z,100139.60
2022-08-17T18:57:00.268Z,100149.60
2022-08-17T19:07:51.995Z,100157.20
2022-08-17T19:13:12.697Z,100155.40
2022-08-17T19:18:41.219Z,100166.80
2022-08-17T19:24:01.538Z,100173.20
2022-08-17T19:29:19.526Z,100177.20
2022-08-17T19:34:34.458Z,100170.80
2022-08-17T19:40:48.926Z,100173.00
2022-08-17T19:46:07.872Z,100177.60
2022-08-17T19:51:36.786Z,100184.00
2022-08-17T19:57:12.539Z,100197.00
2022-08-17T20:02:29.072Z,100199.60
2022-08-17T20:08:12.602Z,100210.80
2022-08-17T20:14:00.743Z,100219.80
2022-08-17T20:19:35.432Z,100225.60
2022-08-17T20:25:30.093Z,100220.40
2022-08-17T20:30:43.051Z,100214.00
2022-08-17T20:36:01.868Z,100216.00
2022-08-17T20:41:10.810Z,100223.40
2022-08-17T20:46:29.992Z,100223.00
2022-08-17T20:52:01.448Z,100224.00
2022-08-17T20:57:14.428Z,100222.20
2022-08-17T21:02:24.791Z,100227.20
2022-08-17T21:07:55.335Z,100227.60
2022-08-17T21:13:15.672Z,100224.20
2022-08-17T21:19:06.918Z,100230.00
2022-08-17T21:24:33.166Z,100227.20
2022-08-17T21:30:30.256Z,100230.80
2022-08-17T21:36:16.633Z,100239.40
2022-08-17T21:41:34.458Z,100235.40
2022-08-17T21:46:46.469Z,100230.80
2022-08-17T21:51:56.975Z,100240.20
2022-08-17T21:57:06.404Z,100228.60
2022-08-17T22:02:24.508Z,100225.00
2022-08-17T22:08:00.403Z,100218.60
2022-08-17T22:13:29.707Z,100218.40
2022-08-17T22:18:34.901Z,100210.80
2022-08-17T22:24:02.049Z,100201.20
2022-08-17T22:29:57.475Z,100195.00
2022-08-17T22:35:35.772Z,100190.40
2022-08-17T22:40:40.627Z,100188.80
2022-08-17T22:45:51.993Z,100186.40
2022-08-17T22:51:14.714Z,100202.20
2022-08-17T22:56:43.396Z,100197.80
2022-08-17T23:02:16.343Z,100205.40
2022-08-17T23:07:23.689Z,100202.40
2022-08-17T23:12:28.240Z,100204.40
2022-08-17T23:17:48.113Z,100207.40
2022-08-17T23:22:54.289Z,100197.40
2022-08-17T23:28:01.992Z,100196.20
2022-08-17T23:33:12.577Z,100190.80
2022-08-17T23:38:16.870Z,100192.80
2022-08-17T23:43:24.212Z,100198.20
2022-08-17T23:48:35.919Z,100198.60
2022-08-17T23:53:50.895Z,100206.60
2022-08-17T23:58:56.956Z,100200.60
